Folly Beach, SC (29439)

10:15 PM EDT en Septiembre 02, 2014 (GMT -0400)
Riverfront | Change Station
CLOSE
Current Station
Estación meteorológica personal
Location: Charleston, SC
Altura: 35 ft
Estaciones meteorológicas cercanas

Alt 35 ft 32.69 °N, 79.96 °W | Updated 10 seconds ago

Clear
Despejado
82.4 ° F
Sensación térmica 92 ° F
N
0.5
Viento Variable Viento desde Oeste
Gusts 3.1 mph

Hoy
Alta -- | Baja -- ° F
--% Posibilidad de precipitaciones
Ayer
Alta -- | Baja -- ° F
Precip. -- pul
6:55 AM 7:43 PM
Cuarto creciente, 57% visible
Presión 30.03 pul
Visibilidad 10.0 Millas
Nubes Despejado
Índice de calor 92 ° F
Punto de rocío 78 ° F
Humedad 87%
Precipitaciones 0.00 pul
Espesor de la nieve No disponible.
UV 0 de una escala de 12
Polen 9.00 de una escala de 12
Ozono Buena
PM2.5 Moderada
Flu Activity No disponible.
METAR KJZI 030135Z AUTO 00000KT 10SM CLR 27/26 A3003 RMK A02 P000

More Conditions Fewer Conditions

Presión 30.03 pul
Visibilidad 10.0 Millas
Nubes Despejado
Índice de calor 92 ° F
Punto de rocío 78 ° F
Humedad 87%
Precipitaciones 0.00 pul
Espesor de la nieve No disponible.
UV 0 de una escala de 12
Polen 9.00 de una escala de 12
Ozono Buena
PM2.5 Moderada
Flu Activity No disponible.
METAR KJZI 030135Z AUTO 00000KT 10SM CLR 27/26 A3003 RMK A02 P000

More Conditions Fewer Conditions

10-Day Weather Forecast

Almanac

Astronomía

Sep. 02, 2014 Salida Puesta
Hora real 6:55 AM EDT 7:43 PM EDT
Crepúsculo civil 6:30 AM EDT 8:08 PM EDT
Crepúsculo náutico 6:00 AM EDT 8:37 PM EDT
Crepúsculo astronómico 5:30 AM EDT 9:07 PM EDT
Luna 2:14 PM EDT (9/2) 12:06 AM EDT (9/2)
Horas de luz 13h 38m
Horas de luz
12h 47m
Tomorrow will be 1m 57s shorter.
Cuarto creciente, 57% of the Moon is Illuminated
Hoy
Cuarto creciente
Sep 8
Luna llena
Sep 15
Cuarto menguante
Sep 24
Nueva
Oct 1
Cuarto creciente

Extremos de hoy

Máximos del estado Bajos del estado

Community

WunderPhotos

Upload Photos

1,749,841 ¡fotos cargadas!

Nearby

Calidad del aire

  Calidad del aire Índice AQ Contaminante
Ayer Moderada
PM2.5
Ayer Buena
OZONE
Real Moderada
PM2.5
Real Buena
OZONE
Martes Buena
OZONE
Miércoles Buena
OZONE

Grosos de nieve

Estación Profundido Altura
No tenemos constancia de nieve nueva.

Actividad de terremotos

Ciudad Distance Mag. Tiempo y dato
No hay informes recientes de la actividad sísmica.
Magnitud mínima muestra es 2,5.

Temperaturas de aguas costeras

Lugar Temperatura
Sin partes meteorológicos de las estaciones

Estaciones meteorológicas cercanas